KFKL/FKL METAR and TAF weather

Enter ICAO airport designator
Station Type Date Time Source
KFKL METAR 2019/06/19 01:56 UTC NOAA

KFKL 190156Z AUTO 20003KT 10SM FEW042 OVC050 19/18 A2992 RMK AO2 SLP128 T01890178


Station Type Date Time Source
KFKL Decoded METAR 2019/06/19 01:56 UTC NOAA

Franklin, Venango Regional Airport, PA, United States (KFKL) 41-23N 079-52W
Jun 18, 2019 - 09:56 PM EDT / 2019.06.19 0156 UTC
Wind: from the SSW (200 degrees) at 3 MPH (3 KT):0
Visibility: 10 mile(s):0
Sky conditions: overcast
Temperature: 66.0 F (18.9 C)
Dew Point: 64.0 F (17.8 C)
Relative Humidity: 93%
Pressure (altimeter): 29.92 in. Hg (1013 hPa)
ob: KFKL 190156Z AUTO 20003KT 10SM FEW042 OVC050 19/18 A2992 RMK AO2 SLP128 T01890178
cycle: 2

Station Type Date Time Source
KFKL TAF 2019/06/18 19:48 UTC NOAA

TAF
AMD KFKL 181844Z 1819/1918 24006KT P6SM BKN020
FM182100 25005KT P6SM OVC035
FM190500 00000KT 5SM BR BKN025
FM190800 00000KT 3SM BR BKN004
FM191400 00000KT 5SM BR BKN007
FM191600 00000KT P6SM BKN010

Example: see airport list